sensor_id;sensor_type;location;lat;lon;timestamp;temperature;humidity
26721;HTU21D;15950;51.112;6.966;2022-09-09T00:00:25;25.92;47.11
26721;HTU21D;15950;51.112;6.966;2022-09-09T00:01:02;25.94;47.17
26721;HTU21D;15950;51.112;6.966;2022-09-09T00:02:00;25.92;47.22
26721;HTU21D;15950;51.112;6.966;2022-09-09T00:02:27;25.94;47.18
26721;HTU21D;15950;51.112;6.966;2022-09-09T00:03:27;25.93;47.25
26721;HTU21D;15950;51.112;6.966;2022-09-09T00:04:03;25.90;47.22
26721;HTU21D;15950;51.112;6.966;2022-09-09T00:04:30;25.91;47.29
26721;HTU21D;15950;51.112;6.966;2022-09-09T00:05:04;25.90;47.22
26721;HTU21D;15950;51.112;6.966;2022-09-09T00:06:30;25.91;47.35
26721;HTU21D;15950;51.112;6.966;2022-09-09T00:07:59;25.92;47.40
26721;HTU21D;15950;51.112;6.966;2022-09-09T00:09:27;25.93;47.30
26721;HTU21D;15950;51.112;6.966;2022-09-09T00:10:58;25.93;47.27
26721;HTU21D;15950;51.112;6.966;2022-09-09T00:11:36;25.94;47.29
26721;HTU21D;15950;51.112;6.966;2022-09-09T00:13:34;25.92;47.30
26721;HTU21D;15950;51.112;6.966;2022-09-09T00:13:57;25.93;47.30
26721;HTU21D;15950;51.112;6.966;2022-09-09T00:14:34;25.92;47.35
26721;HTU21D;15950;51.112;6.966;2022-09-09T00:14:58;25.92;47.41
26721;HTU21D;15950;51.112;6.966;2022-09-09T00:16:27;25.90;47.38
26721;HTU21D;15950;51.112;6.966;2022-09-09T00:17:00;25.92;47.38
26721;HTU21D;15950;51.112;6.966;2022-09-09T00:19:01;25.93;47.36
26721;HTU21D;15950;51.112;6.966;2022-09-09T00:19:33;25.90;47.36
26721;HTU21D;15950;51.112;6.966;2022-09-09T00:20:01;25.91;47.42
26721;HTU21D;15950;51.112;6.966;2022-09-09T00:21:01;25.93;47.34
26721;HTU21D;15950;51.112;6.966;2022-09-09T00:21:34;25.93;47.27
26721;HTU21D;15950;51.112;6.966;2022-09-09T00:22:26;25.91;47.30
26721;HTU21D;15950;51.112;6.966;2022-09-09T00:23:30;25.93;47.41
26721;HTU21D;15950;51.112;6.966;2022-09-09T00:23:55;25.94;47.40
26721;HTU21D;15950;51.112;6.966;2022-09-09T00:24:29;25.94;47.34
26721;HTU21D;15950;51.112;6.966;2022-09-09T00:25:32;25.91;47.47
26721;HTU21D;15950;51.112;6.966;2022-09-09T00:27:07;25.92;47.47
26721;HTU21D;15950;51.112;6.966;2022-09-09T00:27:54;25.93;47.47
26721;HTU21D;15950;51.112;6.966;2022-09-09T00:28:26;25.93;47.45
26721;HTU21D;15950;51.112;6.966;2022-09-09T00:29:43;25.90;47.47
26721;HTU21D;15950;51.112;6.966;2022-09-09T00:29:59;25.91;47.50
26721;HTU21D;15950;51.112;6.966;2022-09-09T00:30:28;25.92;47.54
26721;HTU21D;15950;51.112;6.966;2022-09-09T00:30:55;25.92;47.53
26721;HTU21D;15950;51.112;6.966;2022-09-09T00:31:29;25.92;47.58
26721;HTU21D;15950;51.112;6.966;2022-09-09T00:31:57;25.92;47.58
26721;HTU21D;15950;51.112;6.966;2022-09-09T00:32:28;25.90;47.53
26721;HTU21D;15950;51.112;6.966;2022-09-09T00:32:59;25.90;47.59
26721;HTU21D;15950;51.112;6.966;2022-09-09T00:33:26;25.92;47.52
26721;HTU21D;15950;51.112;6.966;2022-09-09T00:34:00;25.92;47.55
26721;HTU21D;15950;51.112;6.966;2022-09-09T00:34:25;25.94;47.52
26721;HTU21D;15950;51.112;6.966;2022-09-09T00:34:58;25.95;47.51
26721;HTU21D;15950;51.112;6.966;2022-09-09T00:35:29;25.95;47.47
26721;HTU21D;15950;51.112;6.966;2022-09-09T00:35:57;25.95;47.43
26721;HTU21D;15950;51.112;6.966;2022-09-09T00:36:26;25.97;47.40
26721;HTU21D;15950;51.112;6.966;2022-09-09T00:36:56;25.94;47.41
26721;HTU21D;15950;51.112;6.966;2022-09-09T00:37:26;25.97;47.39
26721;HTU21D;15950;51.112;6.966;2022-09-09T00:37:58;25.96;47.39
26721;HTU21D;15950;51.112;6.966;2022-09-09T00:38:33;25.97;47.42
26721;HTU21D;15950;51.112;6.966;2022-09-09T00:39:00;25.97;47.47
26721;HTU21D;15950;51.112;6.966;2022-09-09T00:39:32;25.99;47.38
26721;HTU21D;15950;51.112;6.966;2022-09-09T00:39:58;25.96;47.50
26721;HTU21D;15950;51.112;6.966;2022-09-09T00:40:34;25.96;47.51
26721;HTU21D;15950;51.112;6.966;2022-09-09T00:42:29;25.94;47.52
26721;HTU21D;15950;51.112;6.966;2022-09-09T00:43:30;25.95;47.60
26721;HTU21D;15950;51.112;6.966;2022-09-09T00:44:31;25.94;47.56
26721;HTU21D;15950;51.112;6.966;2022-09-09T00:45:21;25.93;47.66
26721;HTU21D;15950;51.112;6.966;2022-09-09T00:47:54;25.94;47.67
26721;HTU21D;15950;51.112;6.966;2022-09-09T00:48:33;25.92;47.53
26721;HTU21D;15950;51.112;6.966;2022-09-09T00:50:01;25.94;47.51
26721;HTU21D;15950;51.112;6.966;2022-09-09T00:51:00;25.96;47.53
26721;HTU21D;15950;51.112;6.966;2022-09-09T00:53:07;25.94;47.60
26721;HTU21D;15950;51.112;6.966;2022-09-09T00:53:33;25.96;47.52
26721;HTU21D;15950;51.112;6.966;2022-09-09T00:54:37;25.92;47.41
26721;HTU21D;15950;51.112;6.966;2022-09-09T00:56:34;25.94;47.44
26721;HTU21D;15950;51.112;6.966;2022-09-09T00:57:33;25.91;47.48
26721;HTU21D;15950;51.112;6.966;2022-09-09T00:57:54;25.94;47.50
26721;HTU21D;15950;51.112;6.966;2022-09-09T00:58:24;25.95;47.47
26721;HTU21D;15950;51.112;6.966;2022-09-09T01:00:30;25.93;47.42
26721;HTU21D;15950;51.112;6.966;2022-09-09T01:01:24;25.94;47.34
26721;HTU21D;15950;51.112;6.966;2022-09-09T01:01:54;25.94;47.38
26721;HTU21D;15950;51.112;6.966;2022-09-09T01:02:28;25.97;47.40
26721;HTU21D;15950;51.112;6.966;2022-09-09T01:03:55;25.95;47.38
26721;HTU21D;15950;51.112;6.966;2022-09-09T01:04:32;25.94;47.34
26721;HTU21D;15950;51.112;6.966;2022-09-09T01:05:07;25.95;47.37
26721;HTU21D;15950;51.112;6.966;2022-09-09T01:06:34;25.95;47.30
26721;HTU21D;15950;51.112;6.966;2022-09-09T01:07:03;25.94;47.38
26721;HTU21D;15950;51.112;6.966;2022-09-09T01:07:24;25.96;47.41
26721;HTU21D;15950;51.112;6.966;2022-09-09T01:07:55;25.94;47.37
26721;HTU21D;15950;51.112;6.966;2022-09-09T01:10:00;25.97;47.33
26721;HTU21D;15950;51.112;6.966;2022-09-09T01:10:56;25.96;47.44
26721;HTU21D;15950;51.112;6.966;2022-09-09T01:11:27;25.96;47.43
26721;HTU21D;15950;51.112;6.966;2022-09-09T01:12:29;25.95;47.35
26721;HTU21D;15950;51.112;6.966;2022-09-09T01:12:58;25.96;47.31
26721;HTU21D;15950;51.112;6.966;2022-09-09T01:13:30;25.96;47.41
26721;HTU21D;15950;51.112;6.966;2022-09-09T01:15:04;25.98;47.34
26721;HTU21D;15950;51.112;6.966;2022-09-09T01:15:28;25.99;47.33
26721;HTU21D;15950;51.112;6.966;2022-09-09T01:15:55;25.97;47.33
26721;HTU21D;15950;51.112;6.966;2022-09-09T01:16:25;25.97;47.38
26721;HTU21D;15950;51.112;6.966;2022-09-09T01:16:57;25.99;47.36
26721;HTU21D;15950;51.112;6.966;2022-09-09T01:17:31;25.98;47.40
26721;HTU21D;15950;51.112;6.966;2022-09-09T01:18:29;25.95;47.27
26721;HTU21D;15950;51.112;6.966;2022-09-09T01:18:56;25.96;47.28
26721;HTU21D;15950;51.112;6.966;2022-09-09T01:20:04;25.97;47.35
26721;HTU21D;15950;51.112;6.966;2022-09-09T01:20:13;25.97;47.30
26721;HTU21D;15950;51.112;6.966;2022-09-09T01:20:33;25.97;47.34
26721;HTU21D;15950;51.112;6.966;2022-09-09T01:21:35;25.95;47.55
26721;HTU21D;15950;51.112;6.966;2022-09-09T01:22:01;25.94;47.47
26721;HTU21D;15950;51.112;6.966;2022-09-09T01:22:34;25.95;47.41
26721;HTU21D;15950;51.112;6.966;2022-09-09T01:23:34;25.95;47.35
26721;HTU21D;15950;51.112;6.966;2022-09-09T01:24:36;25.94;47.47
26721;HTU21D;15950;51.112;6.966;2022-09-09T01:24:48;25.93;47.41
26721;HTU21D;15950;51.112;6.966;2022-09-09T01:26:30;25.97;47.42
26721;HTU21D;15950;51.112;6.966;2022-09-09T01:26:58;25.98;47.37
26721;HTU21D;15950;51.112;6.966;2022-09-09T01:27:24;25.98;47.31
26721;HTU21D;15950;51.112;6.966;2022-09-09T01:28:00;25.97;47.31
26721;HTU21D;15950;51.112;6.966;2022-09-09T01:28:26;25.99;47.34
26721;HTU21D;15950;51.112;6.966;2022-09-09T01:28:55;25.95;47.45
26721;HTU21D;15950;51.112;6.966;2022-09-09T01:29:25;25.95;47.43
26721;HTU21D;15950;51.112;6.966;2022-09-09T01:29:54;25.96;47.45
26721;HTU21D;15950;51.112;6.966;2022-09-09T01:30:25;25.96;47.51
26721;HTU21D;15950;51.112;6.966;2022-09-09T01:30:56;25.98;47.48
26721;HTU21D;15950;51.112;6.966;2022-09-09T01:31:34;25.96;47.41
26721;HTU21D;15950;51.112;6.966;2022-09-09T01:31:56;25.95;47.50
26721;HTU21D;15950;51.112;6.966;2022-09-09T01:32:57;25.96;47.41
26721;HTU21D;15950;51.112;6.966;2022-09-09T01:33:25;25.94;47.40
26721;HTU21D;15950;51.112;6.966;2022-09-09T01:33:54;25.92;47.50
26721;HTU21D;15950;51.112;6.966;2022-09-09T01:34:33;25.94;47.44
26721;HTU21D;15950;51.112;6.966;2022-09-09T01:34:54;25.96;47.41
26721;HTU21D;15950;51.112;6.966;2022-09-09T01:37:25;26.00;47.26
26721;HTU21D;15950;51.112;6.966;2022-09-09T01:37:55;26.00;47.30
26721;HTU21D;15950;51.112;6.966;2022-09-09T01:38:25;25.99;47.29
26721;HTU21D;15950;51.112;6.966;2022-09-09T01:38:55;25.99;47.23
26721;HTU21D;15950;51.112;6.966;2022-09-09T01:39:25;25.96;47.35
26721;HTU21D;15950;51.112;6.966;2022-09-09T01:39:54;25.96;47.31
26721;HTU21D;15950;51.112;6.966;2022-09-09T01:40:25;25.95;47.38
26721;HTU21D;15950;51.112;6.966;2022-09-09T01:40:55;25.96;47.38
26721;HTU21D;15950;51.112;6.966;2022-09-09T01:41:25;25.96;47.36
26721;HTU21D;15950;51.112;6.966;2022-09-09T01:41:56;25.95;47.38
26721;HTU21D;15950;51.112;6.966;2022-09-09T01:42:25;25.96;47.39
26721;HTU21D;15950;51.112;6.966;2022-09-09T01:42:55;25.97;47.38
26721;HTU21D;15950;51.112;6.966;2022-09-09T01:43:25;25.96;47.41
26721;HTU21D;15950;51.112;6.966;2022-09-09T01:43:55;25.98;47.35
26721;HTU21D;15950;51.112;6.966;2022-09-09T01:44:25;25.98;47.32
26721;HTU21D;15950;51.112;6.966;2022-09-09T01:44:55;25.96;47.35
26721;HTU21D;15950;51.112;6.966;2022-09-09T01:45:24;25.94;47.41
26721;HTU21D;15950;51.112;6.966;2022-09-09T01:45:58;25.99;47.34
26721;HTU21D;15950;51.112;6.966;2022-09-09T01:46:25;26.01;47.34
26721;HTU21D;15950;51.112;6.966;2022-09-09T01:46:55;25.99;47.32
26721;HTU21D;15950;51.112;6.966;2022-09-09T01:47:25;26.00;47.35
26721;HTU21D;15950;51.112;6.966;2022-09-09T01:47:55;25.99;47.37
26721;HTU21D;15950;51.112;6.966;2022-09-09T01:48:25;25.99;47.38
26721;HTU21D;15950;51.112;6.966;2022-09-09T01:48:55;25.97;47.42
26721;HTU21D;15950;51.112;6.966;2022-09-09T01:49:25;26.00;47.40
26721;HTU21D;15950;51.112;6.966;2022-09-09T01:49:55;26.00;47.38
26721;HTU21D;15950;51.112;6.966;2022-09-09T01:50:25;26.01;47.28
26721;HTU21D;15950;51.112;6.966;2022-09-09T01:50:55;26.00;47.31
26721;HTU21D;15950;51.112;6.966;2022-09-09T01:51:25;25.97;47.24
26721;HTU21D;15950;51.112;6.966;2022-09-09T01:51:55;25.97;47.38
26721;HTU21D;15950;51.112;6.966;2022-09-09T01:52:25;25.98;47.44
26721;HTU21D;15950;51.112;6.966;2022-09-09T01:52:58;25.98;47.46
26721;HTU21D;15950;51.112;6.966;2022-09-09T01:53:25;25.99;47.48
26721;HTU21D;15950;51.112;6.966;2022-09-09T01:53:55;25.99;47.48
26721;HTU21D;15950;51.112;6.966;2022-09-09T01:54:28;25.98;47.49
26721;HTU21D;15950;51.112;6.966;2022-09-09T01:54:55;25.96;47.50
26721;HTU21D;15950;51.112;6.966;2022-09-09T01:55:32;25.98;47.54
26721;HTU21D;15950;51.112;6.966;2022-09-09T01:56:02;25.97;47.54
26721;HTU21D;15950;51.112;6.966;2022-09-09T01:57:30;25.99;47.38
26721;HTU21D;15950;51.112;6.966;2022-09-09T01:59:01;26.00;47.29
26721;HTU21D;15950;51.112;6.966;2022-09-09T02:00:06;26.02;47.36
26721;HTU21D;15950;51.112;6.966;2022-09-09T02:00:25;26.02;47.40
26721;HTU21D;15950;51.112;6.966;2022-09-09T02:01:49;26.00;47.54
26721;HTU21D;15950;51.112;6.966;2022-09-09T02:02:04;26.00;47.53
26721;HTU21D;15950;51.112;6.966;2022-09-09T02:03:03;26.02;47.41
26721;HTU21D;15950;51.112;6.966;2022-09-09T02:03:28;26.00;47.34
26721;HTU21D;15950;51.112;6.966;2022-09-09T02:03:57;25.98;47.29
26721;HTU21D;15950;51.112;6.966;2022-09-09T02:04:36;25.99;47.29
26721;HTU21D;15950;51.112;6.966;2022-09-09T02:05:07;26.01;47.26
26721;HTU21D;15950;51.112;6.966;2022-09-09T02:06:35;25.97;47.20
26721;HTU21D;15950;51.112;6.966;2022-09-09T02:06:56;25.96;47.24
26721;HTU21D;15950;51.112;6.966;2022-09-09T02:08:05;25.95;47.31
26721;HTU21D;15950;51.112;6.966;2022-09-09T02:08:33;25.96;47.31
26721;HTU21D;15950;51.112;6.966;2022-09-09T02:09:00;25.92;47.22
26721;HTU21D;15950;51.112;6.966;2022-09-09T02:09:26;25.90;47.25
26721;HTU21D;15950;51.112;6.966;2022-09-09T02:10:30;25.92;47.14
26721;HTU21D;15950;51.112;6.966;2022-09-09T02:11:02;25.89;47.09
26721;HTU21D;15950;51.112;6.966;2022-09-09T02:11:26;25.90;47.06
26721;HTU21D;15950;51.112;6.966;2022-09-09T02:12:05;25.86;47.05
26721;HTU21D;15950;51.112;6.966;2022-09-09T02:12:25;25.88;47.05
26721;HTU21D;15950;51.112;6.966;2022-09-09T02:13:04;25.87;47.08
26721;HTU21D;15950;51.112;6.966;2022-09-09T02:13:25;25.88;47.02
26721;HTU21D;15950;51.112;6.966;2022-09-09T02:14:00;25.89;47.00
26721;HTU21D;15950;51.112;6.966;2022-09-09T02:14:30;25.82;46.95
26721;HTU21D;15950;51.112;6.966;2022-09-09T02:14:58;25.81;46.96
26721;HTU21D;15950;51.112;6.966;2022-09-09T02:15:32;25.84;46.96
26721;HTU21D;15950;51.112;6.966;2022-09-09T02:16:32;25.81;46.84
26721;HTU21D;15950;51.112;6.966;2022-09-09T02:16:57;25.84;46.83
26721;HTU21D;15950;51.112;6.966;2022-09-09T02:17:28;25.85;46.81
26721;HTU21D;15950;51.112;6.966;2022-09-09T02:17:56;25.76;46.82
26721;HTU21D;15950;51.112;6.966;2022-09-09T02:18:28;25.79;46.80
26721;HTU21D;15950;51.112;6.966;2022-09-09T02:19:02;25.73;46.84
26721;HTU21D;15950;51.112;6.966;2022-09-09T02:19:27;25.79;46.87
26721;HTU21D;15950;51.112;6.966;2022-09-09T02:20:01;25.78;46.80
26721;HTU21D;15950;51.112;6.966;2022-09-09T02:20:26;25.78;46.80
26721;HTU21D;15950;51.112;6.966;2022-09-09T02:20:56;25.78;46.76
26721;HTU21D;15950;51.112;6.966;2022-09-09T02:21:28;25.80;46.70
26721;HTU21D;15950;51.112;6.966;2022-09-09T02:21:56;25.78;46.70
26721;HTU21D;15950;51.112;6.966;2022-09-09T02:22:27;25.70;46.73
26721;HTU21D;15950;51.112;6.966;2022-09-09T02:22:56;25.74;46.75
26721;HTU21D;15950;51.112;6.966;2022-09-09T02:23:25;25.73;46.76
26721;HTU21D;15950;51.112;6.966;2022-09-09T02:23:57;25.76;46.70
26721;HTU21D;15950;51.112;6.966;2022-09-09T02:24:27;25.71;46.73
26721;HTU21D;15950;51.112;6.966;2022-09-09T02:24:56;25.73;46.75
26721;HTU21D;15950;51.112;6.966;2022-09-09T02:25:27;25.76;46.69
26721;HTU21D;15950;51.112;6.966;2022-09-09T02:25:57;25.75;46.65
26721;HTU21D;15950;51.112;6.966;2022-09-09T02:26:25;25.80;46.62
26721;HTU21D;15950;51.112;6.966;2022-09-09T02:26:56;25.78;46.61
26721;HTU21D;15950;51.112;6.966;2022-09-09T02:27:25;25.76;46.59
26721;HTU21D;15950;51.112;6.966;2022-09-09T02:27:55;25.79;46.59
26721;HTU21D;15950;51.112;6.966;2022-09-09T02:28:27;25.74;46.60
26721;HTU21D;15950;51.112;6.966;2022-09-09T02:28:57;25.78;
26721;HTU21D;15950;51.112;6.966;2022-09-09T02:29:57;25.81;46.51
26721;HTU21D;15950;51.112;6.966;2022-09-09T02:30:25;25.81;46.49
26721;HTU21D;15950;51.112;6.966;2022-09-09T02:30:55;25.80;46.49
26721;HTU21D;15950;51.112;6.966;2022-09-09T02:31:25;25.79;46.51
26721;HTU21D;15950;51.112;6.966;2022-09-09T02:31:58;25.73;46.54
26721;HTU21D;15950;51.112;6.966;2022-09-09T02:32:25;25.79;46.53
26721;HTU21D;15950;51.112;6.966;2022-09-09T02:32:56;25.81;46.44
26721;HTU21D;15950;51.112;6.966;2022-09-09T02:33:28;25.81;46.42
26721;HTU21D;15950;51.112;6.966;2022-09-09T02:33:57;25.83;46.40
26721;HTU21D;15950;51.112;6.966;2022-09-09T02:34:26;25.82;46.43
26721;HTU21D;15950;51.112;6.966;2022-09-09T02:35:16;25.81;46.44
26721;HTU21D;15950;51.112;6.966;2022-09-09T02:35:25;25.81;46.47
26721;HTU21D;15950;51.112;6.966;2022-09-09T02:35:55;25.83;46.44
26721;HTU21D;15950;51.112;6.966;2022-09-09T02:36:27;25.85;46.40
26721;HTU21D;15950;51.112;6.966;2022-09-09T02:36:57;25.84;46.41
26721;HTU21D;15950;51.112;6.966;2022-09-09T02:37:31;25.84;46.49
26721;HTU21D;15950;51.112;6.966;2022-09-09T02:37:56;25.84;46.47
26721;HTU21D;15950;51.112;6.966;2022-09-09T02:38:28;25.83;46.62
26721;HTU21D;15950;51.112;6.966;2022-09-09T02:38:56;25.84;46.67
26721;HTU21D;15950;51.112;6.966;2022-09-09T02:39:25;25.83;46.80
26721;HTU21D;15950;51.112;6.966;2022-09-09T02:39:55;25.84;46.83
26721;HTU21D;15950;51.112;6.966;2022-09-09T02:40:25;25.80;46.84
26721;HTU21D;15950;51.112;6.966;2022-09-09T02:40:55;25.76;46.88
26721;HTU21D;15950;51.112;6.966;2022-09-09T02:41:33;25.81;46.80
26721;HTU21D;15950;51.112;6.966;2022-09-09T02:41:55;25.82;46.73
26721;HTU21D;15950;51.112;6.966;2022-09-09T02:42:25;25.76;46.70
26721;HTU21D;15950;51.112;6.966;2022-09-09T02:42:55;25.81;46.69
26721;HTU21D;15950;51.112;6.966;2022-09-09T02:43:25;25.80;46.65
26721;HTU21D;15950;51.112;6.966;2022-09-09T02:43:55;25.81;46.63
26721;HTU21D;15950;51.112;6.966;2022-09-09T02:44:25;25.86;46.56
26721;HTU21D;15950;51.112;6.966;2022-09-09T02:44:55;25.84;46.51
26721;HTU21D;15950;51.112;6.966;2022-09-09T02:45:27;25.84;46.51
26721;HTU21D;15950;51.112;6.966;2022-09-09T02:48:36;25.85;46.72
26721;HTU21D;15950;51.112;6.966;2022-09-09T02:49:02;25.84;46.80
26721;HTU21D;15950;51.112;6.966;2022-09-09T02:49:35;25.85;46.84
26721;HTU21D;15950;51.112;6.966;2022-09-09T02:50:33;25.86;46.87
26721;HTU21D;15950;51.112;6.966;2022-09-09T02:51:06;25.82;46.94
26721;HTU21D;15950;51.112;6.966;2022-09-09T02:52:59;25.79;46.86
26721;HTU21D;15950;51.112;6.966;2022-09-09T02:54:58;25.82;46.70
26721;HTU21D;15950;51.112;6.966;2022-09-09T02:55:59;25.80;46.71
26721;HTU21D;15950;51.112;6.966;2022-09-09T02:56:27;25.82;46.69
26721;HTU21D;15950;51.112;6.966;2022-09-09T02:56:55;25.84;46.68
26721;HTU21D;15950;51.112;6.966;2022-09-09T02:57:31;25.82;46.67
26721;HTU21D;15950;51.112;6.966;2022-09-09T02:57:55;25.80;46.71
26721;HTU21D;15950;51.112;6.966;2022-09-09T02:58:25;25.82;46.72
26721;HTU21D;15950;51.112;6.966;2022-09-09T02:58:55;25.83;46.72
26721;HTU21D;15950;51.112;6.966;2022-09-09T02:59:25;25.81;46.71
26721;HTU21D;15950;51.112;6.966;2022-09-09T02:59:59;25.82;46.73
26721;HTU21D;15950;51.112;6.966;2022-09-09T03:00:26;25.83;46.78
26721;HTU21D;15950;51.112;6.966;2022-09-09T03:00:55;25.83;46.84
26721;HTU21D;15950;51.112;6.966;2022-09-09T03:01:25;25.85;46.78
26721;HTU21D;15950;51.112;6.966;2022-09-09T03:01:55;25.84;46.83
26721;HTU21D;15950;51.112;6.966;2022-09-09T03:02:25;25.85;46.83
26721;HTU21D;15950;51.112;6.966;2022-09-09T03:02:55;25.87;46.83
26721;HTU21D;15950;51.112;6.966;2022-09-09T03:03:25;25.85;46.84
26721;HTU21D;15950;51.112;6.966;2022-09-09T03:03:55;25.87;46.84
26721;HTU21D;15950;51.112;6.966;2022-09-09T03:04:25;25.87;46.89
26721;HTU21D;15950;51.112;6.966;2022-09-09T03:04:55;25.85;46.85
26721;HTU21D;15950;51.112;6.966;2022-09-09T03:05:25;25.84;46.83
26721;HTU21D;15950;51.112;6.966;2022-09-09T03:05:55;25.87;46.84
26721;HTU21D;15950;51.112;6.966;2022-09-09T03:06:25;25.88;46.79
26721;HTU21D;15950;51.112;6.966;2022-09-09T03:06:55;25.88;46.77
26721;HTU21D;15950;51.112;6.966;2022-09-09T03:07:25;25.82;46.80
26721;HTU21D;15950;51.112;6.966;2022-09-09T03:07:55;25.83;46.78
26721;HTU21D;15950;51.112;6.966;2022-09-09T03:08:25;25.84;46.73
26721;HTU21D;15950;51.112;6.966;2022-09-09T03:08:55;25.87;46.76
26721;HTU21D;15950;51.112;6.966;2022-09-09T03:09:25;25.85;46.76
26721;HTU21D;15950;51.112;6.966;2022-09-09T03:09:55;25.79;46.75
26721;HTU21D;15950;51.112;6.966;2022-09-09T03:10:25;25.84;46.81
26721;HTU21D;15950;51.112;6.966;2022-09-09T03:10:55;25.84;46.77
26721;HTU21D;15950;51.112;6.966;2022-09-09T03:11:25;25.84;46.80
26721;HTU21D;15950;51.112;6.966;2022-09-09T03:11:55;25.84;46.78
26721;HTU21D;15950;51.112;6.966;2022-09-09T03:12:25;25.86;46.73
26721;HTU21D;15950;51.112;6.966;2022-09-09T03:12:55;25.85;46.73
26721;HTU21D;15950;51.112;6.966;2022-09-09T03:13:25;25.86;46.73
26721;HTU21D;15950;51.112;6.966;2022-09-09T03:13:55;25.87;46.73
26721;HTU21D;15950;51.112;6.966;2022-09-09T03:14:25;25.86;46.78
26721;HTU21D;15950;51.112;6.966;2022-09-09T03:14:55;25.87;46.80
26721;HTU21D;15950;51.112;6.966;2022-09-09T03:15:25;25.88;46.79
26721;HTU21D;15950;51.112;6.966;2022-09-09T03:15:55;25.88;46.76
26721;HTU21D;15950;51.112;6.966;2022-09-09T03:16:25;25.89;46.72
26721;HTU21D;15950;51.112;6.966;2022-09-09T03:16:55;25.90;46.67
26721;HTU21D;15950;51.112;6.966;2022-09-09T03:17:25;25.89;46.70
26721;HTU21D;15950;51.112;6.966;2022-09-09T03:17:55;25.88;46.71
26721;HTU21D;15950;51.112;6.966;2022-09-09T03:18:25;25.88;46.73
26721;HTU21D;15950;51.112;6.966;2022-09-09T03:18:55;25.87;46.73
26721;HTU21D;15950;51.112;6.966;2022-09-09T03:19:25;25.87;46.76
26721;HTU21D;15950;51.112;6.966;2022-09-09T03:19:55;25.89;46.79
26721;HTU21D;15950;51.112;6.966;2022-09-09T03:20:26;25.88;46.83
26721;HTU21D;15950;51.112;6.966;2022-09-09T03:20:55;25.89;46.80
26721;HTU21D;15950;51.112;6.966;2022-09-09T03:21:25;25.88;46.80
26721;HTU21D;15950;51.112;6.966;2022-09-09T03:21:55;25.90;46.76
26721;HTU21D;15950;51.112;6.966;2022-09-09T03:22:25;25.90;46.75
26721;HTU21D;15950;51.112;6.966;2022-09-09T03:22:56;25.87;46.76
26721;HTU21D;15950;51.112;6.966;2022-09-09T03:23:25;25.76;46.89
26721;HTU21D;15950;51.112;6.966;2022-09-09T03:23:55;25.80;46.96
26721;HTU21D;15950;51.112;6.966;2022-09-09T03:24:25;25.84;46.90
26721;HTU21D;15950;51.112;6.966;2022-09-09T03:24:55;25.85;46.85
26721;HTU21D;15950;51.112;6.966;2022-09-09T03:25:25;25.75;46.84
26721;HTU21D;15950;51.112;6.966;2022-09-09T03:25:55;25.80;46.91
26721;HTU21D;15950;51.112;6.966;2022-09-09T03:26:25;25.82;46.91
26721;HTU21D;15950;51.112;6.966;2022-09-09T03:26:55;25.84;46.83
26721;HTU21D;15950;51.112;6.966;2022-09-09T03:27:25;25.84;46.80
26721;HTU21D;15950;51.112;6.966;2022-09-09T03:27:55;25.82;46.78
26721;HTU21D;15950;51.112;6.966;2022-09-09T03:28:25;25.82;46.73
26721;HTU21D;15950;51.112;6.966;2022-09-09T03:28:55;25.84;46.66
26721;HTU21D;15950;51.112;6.966;2022-09-09T03:29:25;25.83;46.61
26721;HTU21D;15950;51.112;6.966;2022-09-09T03:29:55;25.85;46.57
26721;HTU21D;15950;51.112;6.966;2022-09-09T03:30:26;25.80;46.57
26721;HTU21D;15950;51.112;6.966;2022-09-09T03:30:58;25.75;46.64
26721;HTU21D;15950;51.112;6.966;2022-09-09T03:31:25;25.80;46.61
26721;HTU21D;15950;51.112;6.966;2022-09-09T03:31:55;25.82;46.57
26721;HTU21D;15950;51.112;6.966;2022-09-09T03:32:25;25.74;46.59
26721;HTU21D;15950;51.112;6.966;2022-09-09T03:32:55;25.78;46.59
26721;HTU21D;15950;51.112;6.966;2022-09-09T03:33:25;25.75;46.64
26721;HTU21D;15950;51.112;6.966;2022-09-09T03:33:55;25.76;46.60
26721;HTU21D;15950;51.112;6.966;2022-09-09T03:34:25;25.78;46.58
26721;HTU21D;15950;51.112;6.966;2022-09-09T03:34:55;25.71;46.55
26721;HTU21D;15950;51.112;6.966;2022-09-09T03:35:25;25.73;46.63
26721;HTU21D;15950;51.112;6.966;2022-09-09T03:35:55;25.78;46.60
26721;HTU21D;15950;51.112;6.966;2022-09-09T03:36:25;25.79;46.53
26721;HTU21D;15950;51.112;6.966;2022-09-09T03:36:55;25.79;46.49
26721;HTU21D;15950;51.112;6.966;2022-09-09T03:37:25;25.73;46.48
26721;HTU21D;15950;51.112;6.966;2022-09-09T03:37:55;25.78;46.51
26721;HTU21D;15950;51.112;6.966;2022-09-09T03:38:25;25.76;46.47
26721;HTU21D;15950;51.112;6.966;2022-09-09T03:38:55;25.80;46.46
26721;HTU21D;15950;51.112;6.966;2022-09-09T03:39:25;25.75;46.49
26721;HTU21D;15950;51.112;6.966;2022-09-09T03:39:55;25.78;46.54
26721;HTU21D;15950;51.112;6.966;2022-09-09T03:40:25;25.79;46.57
26721;HTU21D;15950;51.112;6.966;2022-09-09T03:40:56;25.81;46.47
26721;HTU21D;15950;51.112;6.966;2022-09-09T03:41:25;25.79;46.50
26721;HTU21D;15950;51.112;6.966;2022-09-09T03:41:55;25.71;46.54
26721;HTU21D;15950;51.112;6.966;2022-09-09T03:42:25;25.75;46.64
26721;HTU21D;15950;51.112;6.966;2022-09-09T03:42:55;25.73;46.65
26721;HTU21D;15950;51.112;6.966;2022-09-09T03:43:26;25.73;46.70
26721;HTU21D;15950;51.112;6.966;2022-09-09T03:43:55;25.75;46.68
26721;HTU21D;15950;51.112;6.966;2022-09-09T03:44:25;25.68;46.64
26721;HTU21D;15950;51.112;6.966;2022-09-09T03:44:55;25.73;46.64
26721;HTU21D;15950;51.112;6.966;2022-09-09T03:45:25;25.76;46.57
26721;HTU21D;15950;51.112;6.966;2022-09-09T03:45:55;25.79;46.54
26721;HTU21D;15950;51.112;6.966;2022-09-09T03:46:25;25.76;46.54
26721;HTU21D;15950;51.112;6.966;2022-09-09T03:46:55;25.78;46.55
26721;HTU21D;15950;51.112;6.966;2022-09-09T03:47:25;25.79;46.58
26721;HTU21D;15950;51.112;6.966;2022-09-09T03:47:55;25.79;46.57
26721;HTU21D;15950;51.112;6.966;2022-09-09T03:48:25;25.82;46.57
26721;HTU21D;15950;51.112;6.966;2022-09-09T03:48:55;25.82;46.54
26721;HTU21D;15950;51.112;6.966;2022-09-09T03:49:25;25.82;46.53
26721;HTU21D;15950;51.112;6.966;2022-09-09T03:49:55;25.80;46.51
26721;HTU21D;15950;51.112;6.966;2022-09-09T03:50:25;25.80;46.54
26721;HTU21D;15950;51.112;6.966;2022-09-09T03:50:55;25.80;46.56
26721;HTU21D;15950;51.112;6.966;2022-09-09T03:51:25;25.80;46.61
26721;HTU21D;15950;51.112;6.966;2022-09-09T03:51:56;25.82;46.62
26721;HTU21D;15950;51.112;6.966;2022-09-09T03:52:25;25.81;46.66
26721;HTU21D;15950;51.112;6.966;2022-09-09T03:52:55;25.81;46.71
26721;HTU21D;15950;51.112;6.966;2022-09-09T03:53:25;25.80;46.67
26721;HTU21D;15950;51.112;6.966;2022-09-09T03:53:55;25.79;46.65
26721;HTU21D;15950;51.112;6.966;2022-09-09T03:54:25;25.75;46.69
26721;HTU21D;15950;51.112;6.966;2022-09-09T03:54:55;25.78;46.70
26721;HTU21D;15950;51.112;6.966;2022-09-09T03:55:25;25.78;46.59
26721;HTU21D;15950;51.112;6.966;2022-09-09T03:55:56;25.76;46.57